sensor_id;sensor_type;location;lat;lon;timestamp;P1;durP1;ratioP1;P2;durP2;ratioP2
28335;SDS011;15592;53.656;7.276;2023-05-10T00:01:07;34.58;;;21.52;;
28335;SDS011;15592;53.656;7.276;2023-05-10T00:03:32;28.63;;;18.35;;
28335;SDS011;15592;53.656;7.276;2023-05-10T00:05:58;25.48;;;15.70;;
28335;SDS011;15592;53.656;7.276;2023-05-10T00:08:24;21.55;;;14.48;;
28335;SDS011;15592;53.656;7.276;2023-05-10T00:10:49;21.13;;;14.30;;
28335;SDS011;15592;53.656;7.276;2023-05-10T00:13:15;19.63;;;13.02;;
28335;SDS011;15592;53.656;7.276;2023-05-10T00:15:41;18.02;;;11.93;;
28335;SDS011;15592;53.656;7.276;2023-05-10T00:18:06;18.45;;;11.35;;
28335;SDS011;15592;53.656;7.276;2023-05-10T00:20:32;17.20;;;11.40;;
28335;SDS011;15592;53.656;7.276;2023-05-10T00:22:57;18.83;;;11.85;;
28335;SDS011;15592;53.656;7.276;2023-05-10T00:25:23;17.48;;;11.73;;
28335;SDS011;15592;53.656;7.276;2023-05-10T00:27:49;15.75;;;10.65;;
28335;SDS011;15592;53.656;7.276;2023-05-10T00:30:14;17.35;;;11.27;;
28335;SDS011;15592;53.656;7.276;2023-05-10T00:32:40;17.90;;;11.48;;
28335;SDS011;15592;53.656;7.276;2023-05-10T00:35:06;18.60;;;11.73;;
28335;SDS011;15592;53.656;7.276;2023-05-10T00:37:32;16.45;;;10.68;;
28335;SDS011;15592;53.656;7.276;2023-05-10T00:39:58;17.77;;;10.95;;
28335;SDS011;15592;53.656;7.276;2023-05-10T00:42:23;17.88;;;11.25;;
28335;SDS011;15592;53.656;7.276;2023-05-10T00:44:49;15.45;;;10.50;;
28335;SDS011;15592;53.656;7.276;2023-05-10T00:47:15;16.63;;;10.80;;
28335;SDS011;15592;53.656;7.276;2023-05-10T00:49:41;17.35;;;11.20;;
28335;SDS011;15592;53.656;7.276;2023-05-10T00:52:07;17.77;;;11.43;;
28335;SDS011;15592;53.656;7.276;2023-05-10T00:54:34;16.70;;;11.13;;
28335;SDS011;15592;53.656;7.276;2023-05-10T00:56:59;15.48;;;10.40;;
28335;SDS011;15592;53.656;7.276;2023-05-10T00:59:25;15.10;;;10.55;;
28335;SDS011;15592;53.656;7.276;2023-05-10T01:01:50;17.23;;;11.55;;
28335;SDS011;15592;53.656;7.276;2023-05-10T01:04:18;18.30;;;11.93;;
28335;SDS011;15592;53.656;7.276;2023-05-10T01:06:45;17.48;;;10.88;;
28335;SDS011;15592;53.656;7.276;2023-05-10T01:09:11;17.50;;;10.80;;
28335;SDS011;15592;53.656;7.276;2023-05-10T01:11:37;17.63;;;10.95;;
28335;SDS011;15592;53.656;7.276;2023-05-10T01:14:04;18.27;;;10.38;;
28335;SDS011;15592;53.656;7.276;2023-05-10T01:16:32;16.33;;;11.02;;
28335;SDS011;15592;53.656;7.276;2023-05-10T01:19:01;16.67;;;10.75;;
28335;SDS011;15592;53.656;7.276;2023-05-10T01:27:02;14.57;;;9.30;;
28335;SDS011;15592;53.656;7.276;2023-05-10T01:37:46;16.98;;;10.63;;
28335;SDS011;15592;53.656;7.276;2023-05-10T01:40:30;17.00;;;10.68;;
28335;SDS011;15592;53.656;7.276;2023-05-10T01:43:08;18.95;;;12.15;;
28335;SDS011;15592;53.656;7.276;2023-05-10T01:48:40;17.75;;;11.38;;
28335;SDS011;15592;53.656;7.276;2023-05-10T01:51:12;19.58;;;12.20;;
28335;SDS011;15592;53.656;7.276;2023-05-10T01:53:40;19.95;;;12.43;;
28335;SDS011;15592;53.656;7.276;2023-05-10T01:56:09;20.45;;;13.18;;
28335;SDS011;15592;53.656;7.276;2023-05-10T01:58:36;20.25;;;12.45;;
28335;SDS011;15592;53.656;7.276;2023-05-10T02:01:05;23.05;;;13.25;;
28335;SDS011;15592;53.656;7.276;2023-05-10T02:03:33;21.45;;;13.55;;
28335;SDS011;15592;53.656;7.276;2023-05-10T02:06:01;22.33;;;13.27;;
28335;SDS011;15592;53.656;7.276;2023-05-10T02:08:28;21.75;;;13.77;;
28335;SDS011;15592;53.656;7.276;2023-05-10T02:10:55;20.10;;;12.88;;
28335;SDS011;15592;53.656;7.276;2023-05-10T02:13:23;22.63;;;13.75;;
28335;SDS011;15592;53.656;7.276;2023-05-10T02:15:50;22.58;;;13.77;;
28335;SDS011;15592;53.656;7.276;2023-05-10T02:18:17;21.30;;;13.93;;
28335;SDS011;15592;53.656;7.276;2023-05-10T02:20:44;24.55;;;14.55;;
28335;SDS011;15592;53.656;7.276;2023-05-10T02:23:11;21.77;;;13.23;;
28335;SDS011;15592;53.656;7.276;2023-05-10T02:25:38;20.35;;;12.48;;
28335;SDS011;15592;53.656;7.276;2023-05-10T02:28:06;23.00;;;13.88;;
28335;SDS011;15592;53.656;7.276;2023-05-10T02:30:33;18.95;;;11.73;;
28335;SDS011;15592;53.656;7.276;2023-05-10T02:32:59;16.25;;;10.60;;
28335;SDS011;15592;53.656;7.276;2023-05-10T02:35:27;12.95;;;9.25;;
28335;SDS011;15592;53.656;7.276;2023-05-10T02:37:53;10.60;;;7.32;;
28335;SDS011;15592;53.656;7.276;2023-05-10T02:40:19;7.88;;;5.82;;
28335;SDS011;15592;53.656;7.276;2023-05-10T02:42:47;6.63;;;4.80;;
28335;SDS011;15592;53.656;7.276;2023-05-10T02:45:17;5.20;;;4.13;;
28335;SDS011;15592;53.656;7.276;2023-05-10T02:47:45;5.82;;;4.40;;
28335;SDS011;15592;53.656;7.276;2023-05-10T02:50:11;6.07;;;4.90;;
28335;SDS011;15592;53.656;7.276;2023-05-10T02:52:38;5.63;;;4.68;;
28335;SDS011;15592;53.656;7.276;2023-05-10T02:55:06;9.10;;;6.53;;
28335;SDS011;15592;53.656;7.276;2023-05-10T02:57:38;10.38;;;7.93;;
28335;SDS011;15592;53.656;7.276;2023-05-10T03:00:08;10.95;;;8.15;;
28335;SDS011;15592;53.656;7.276;2023-05-10T03:02:34;12.90;;;9.38;;
28335;SDS011;15592;53.656;7.276;2023-05-10T03:05:01;12.75;;;9.40;;
28335;SDS011;15592;53.656;7.276;2023-05-10T03:07:27;14.15;;;10.13;;
28335;SDS011;15592;53.656;7.276;2023-05-10T03:09:53;14.07;;;10.20;;
28335;SDS011;15592;53.656;7.276;2023-05-10T03:12:28;13.98;;;10.15;;
28335;SDS011;15592;53.656;7.276;2023-05-10T03:17:56;13.75;;;9.50;;
28335;SDS011;15592;53.656;7.276;2023-05-10T03:20:43;13.73;;;10.38;;
28335;SDS011;15592;53.656;7.276;2023-05-10T03:23:24;12.35;;;9.07;;
28335;SDS011;15592;53.656;7.276;2023-05-10T03:26:05;15.38;;;10.35;;
28335;SDS011;15592;53.656;7.276;2023-05-10T03:28:32;15.13;;;9.98;;
28335;SDS011;15592;53.656;7.276;2023-05-10T03:30:59;14.85;;;10.35;;
28335;SDS011;15592;53.656;7.276;2023-05-10T03:33:25;14.23;;;10.20;;
28335;SDS011;15592;53.656;7.276;2023-05-10T03:35:51;15.13;;;10.05;;
28335;SDS011;15592;53.656;7.276;2023-05-10T03:38:16;13.90;;;9.93;;
28335;SDS011;15592;53.656;7.276;2023-05-10T03:40:42;17.98;;;11.85;;
28335;SDS011;15592;53.656;7.276;2023-05-10T03:43:08;15.98;;;10.23;;
28335;SDS011;15592;53.656;7.276;2023-05-10T03:45:33;17.10;;;10.98;;
28335;SDS011;15592;53.656;7.276;2023-05-10T03:47:59;14.25;;;9.43;;
28335;SDS011;15592;53.656;7.276;2023-05-10T03:50:25;14.38;;;9.68;;
28335;SDS011;15592;53.656;7.276;2023-05-10T03:52:51;13.88;;;9.55;;
28335;SDS011;15592;53.656;7.276;2023-05-10T03:55:17;14.43;;;9.70;;
28335;SDS011;15592;53.656;7.276;2023-05-10T03:57:42;12.85;;;8.60;;
28335;SDS011;15592;53.656;7.276;2023-05-10T04:00:08;13.27;;;8.38;;
28335;SDS011;15592;53.656;7.276;2023-05-10T04:02:34;10.00;;;7.40;;
28335;SDS011;15592;53.656;7.276;2023-05-10T04:05:00;13.20;;;8.27;;
28335;SDS011;15592;53.656;7.276;2023-05-10T04:07:26;10.93;;;7.40;;
28335;SDS011;15592;53.656;7.276;2023-05-10T04:09:52;12.82;;;8.82;;
28335;SDS011;15592;53.656;7.276;2023-05-10T04:12:17;12.40;;;7.95;;
28335;SDS011;15592;53.656;7.276;2023-05-10T04:14:43;11.35;;;7.63;;
28335;SDS011;15592;53.656;7.276;2023-05-10T04:17:08;13.15;;;8.10;;
28335;SDS011;15592;53.656;7.276;2023-05-10T04:19:35;11.80;;;7.85;;
28335;SDS011;15592;53.656;7.276;2023-05-10T04:22:01;11.80;;;7.90;;
28335;SDS011;15592;53.656;7.276;2023-05-10T04:24:27;11.63;;;7.70;;
28335;SDS011;15592;53.656;7.276;2023-05-10T04:26:53;9.52;;;6.57;;
28335;SDS011;15592;53.656;7.276;2023-05-10T04:29:20;9.32;;;6.35;;
28335;SDS011;15592;53.656;7.276;2023-05-10T04:31:45;8.20;;;5.63;;
28335;SDS011;15592;53.656;7.276;2023-05-10T04:34:11;9.05;;;6.03;;
28335;SDS011;15592;53.656;7.276;2023-05-10T04:36:37;10.85;;;7.30;;
28335;SDS011;15592;53.656;7.276;2023-05-10T04:39:03;10.90;;;6.90;;
28335;SDS011;15592;53.656;7.276;2023-05-10T04:41:28;10.73;;;7.22;;
28335;SDS011;15592;53.656;7.276;2023-05-10T04:43:54;12.40;;;7.97;;
28335;SDS011;15592;53.656;7.276;2023-05-10T04:46:20;13.57;;;8.95;;
28335;SDS011;15592;53.656;7.276;2023-05-10T04:48:46;14.52;;;8.93;;
28335;SDS011;15592;53.656;7.276;2023-05-10T04:51:11;13.88;;;9.15;;
28335;SDS011;15592;53.656;7.276;2023-05-10T04:53:37;13.75;;;9.07;;
28335;SDS011;15592;53.656;7.276;2023-05-10T04:56:03;17.38;;;10.85;;
28335;SDS011;15592;53.656;7.276;2023-05-10T04:58:29;17.13;;;11.02;;
28335;SDS011;15592;53.656;7.276;2023-05-10T05:00:54;15.68;;;10.10;;
28335;SDS011;15592;53.656;7.276;2023-05-10T05:03:20;20.58;;;12.60;;
28335;SDS011;15592;53.656;7.276;2023-05-10T05:05:45;18.65;;;11.90;;
28335;SDS011;15592;53.656;7.276;2023-05-10T05:08:11;17.10;;;11.15;;
28335;SDS011;15592;53.656;7.276;2023-05-10T05:10:37;15.05;;;9.70;;
28335;SDS011;15592;53.656;7.276;2023-05-10T05:13:03;16.17;;;10.65;;
28335;SDS011;15592;53.656;7.276;2023-05-10T05:15:28;15.77;;;10.27;;
28335;SDS011;15592;53.656;7.276;2023-05-10T05:17:55;14.63;;;9.50;;
28335;SDS011;15592;53.656;7.276;2023-05-10T05:20:21;15.13;;;9.70;;
28335;SDS011;15592;53.656;7.276;2023-05-10T05:22:47;15.15;;;9.65;;
28335;SDS011;15592;53.656;7.276;2023-05-10T05:25:12;15.13;;;8.95;;
28335;SDS011;15592;53.656;7.276;2023-05-10T05:27:38;15.20;;;10.15;;
28335;SDS011;15592;53.656;7.276;2023-05-10T05:30:04;16.08;;;9.98;;
28335;SDS011;15592;53.656;7.276;2023-05-10T05:32:30;15.77;;;9.82;;
28335;SDS011;15592;53.656;7.276;2023-05-10T05:34:56;13.90;;;9.68;;
28335;SDS011;15592;53.656;7.276;2023-05-10T05:37:21;13.48;;;9.18;;
28335;SDS011;15592;53.656;7.276;2023-05-10T05:39:47;15.20;;;10.20;;
28335;SDS011;15592;53.656;7.276;2023-05-10T05:42:13;14.43;;;9.20;;
28335;SDS011;15592;53.656;7.276;2023-05-10T05:44:41;15.18;;;9.88;;
28335;SDS011;15592;53.656;7.276;2023-05-10T05:47:07;14.45;;;9.93;;
28335;SDS011;15592;53.656;7.276;2023-05-10T05:49:32;15.20;;;9.15;;
28335;SDS011;15592;53.656;7.276;2023-05-10T05:51:58;13.07;;;9.38;;
28335;SDS011;15592;53.656;7.276;2023-05-10T05:54:25;15.30;;;10.50;;
28335;SDS011;15592;53.656;7.276;2023-05-10T05:56:53;16.30;;;10.63;;
28335;SDS011;15592;53.656;7.276;2023-05-10T05:59:20;15.73;;;10.23;;
28335;SDS011;15592;53.656;7.276;2023-05-10T06:01:46;15.50;;;10.52;;
28335;SDS011;15592;53.656;7.276;2023-05-10T06:04:11;14.43;;;9.98;;
28335;SDS011;15592;53.656;7.276;2023-05-10T06:06:37;14.43;;;10.45;;
28335;SDS011;15592;53.656;7.276;2023-05-10T06:09:03;12.40;;;9.20;;
28335;SDS011;15592;53.656;7.276;2023-05-10T06:11:28;13.35;;;9.68;;
28335;SDS011;15592;53.656;7.276;2023-05-10T06:13:55;13.27;;;10.18;;
28335;SDS011;15592;53.656;7.276;2023-05-10T06:16:21;14.35;;;9.88;;
28335;SDS011;15592;53.656;7.276;2023-05-10T06:18:47;14.63;;;10.40;;
28335;SDS011;15592;53.656;7.276;2023-05-10T06:21:12;14.70;;;10.73;;
28335;SDS011;15592;53.656;7.276;2023-05-10T06:23:38;13.40;;;9.98;;
28335;SDS011;15592;53.656;7.276;2023-05-10T06:26:04;14.57;;;10.50;;
28335;SDS011;15592;53.656;7.276;2023-05-10T06:28:29;14.80;;;10.98;;
28335;SDS011;15592;53.656;7.276;2023-05-10T06:30:57;15.25;;;10.63;;
28335;SDS011;15592;53.656;7.276;2023-05-10T06:33:22;14.40;;;10.80;;
28335;SDS011;15592;53.656;7.276;2023-05-10T06:35:48;13.13;;;9.82;;
28335;SDS011;15592;53.656;7.276;2023-05-10T06:38:13;13.00;;;9.75;;
28335;SDS011;15592;53.656;7.276;2023-05-10T06:40:43;12.25;;;9.02;;
28335;SDS011;15592;53.656;7.276;2023-05-10T06:43:09;12.68;;;9.27;;
28335;SDS011;15592;53.656;7.276;2023-05-10T06:45:35;12.82;;;9.43;;
28335;SDS011;15592;53.656;7.276;2023-05-10T06:48:01;13.05;;;9.57;;
28335;SDS011;15592;53.656;7.276;2023-05-10T06:50:26;12.27;;;9.45;;
28335;SDS011;15592;53.656;7.276;2023-05-10T06:52:52;13.50;;;9.40;;
28335;SDS011;15592;53.656;7.276;2023-05-10T06:55:18;12.00;;;8.38;;
28335;SDS011;15592;53.656;7.276;2023-05-10T06:57:43;11.85;;;8.65;;
28335;SDS011;15592;53.656;7.276;2023-05-10T07:00:09;11.70;;;8.82;;
28335;SDS011;15592;53.656;7.276;2023-05-10T07:02:35;10.70;;;7.70;;
28335;SDS011;15592;53.656;7.276;2023-05-10T07:05:01;11.57;;;8.00;;
28335;SDS011;15592;53.656;7.276;2023-05-10T07:07:27;13.40;;;8.93;;
28335;SDS011;15592;53.656;7.276;2023-05-10T07:09:53;11.85;;;7.78;;
28335;SDS011;15592;53.656;7.276;2023-05-10T07:12:19;10.63;;;7.78;;
28335;SDS011;15592;53.656;7.276;2023-05-10T07:14:45;11.10;;;7.82;;
28335;SDS011;15592;53.656;7.276;2023-05-10T07:17:11;11.95;;;8.07;;
28335;SDS011;15592;53.656;7.276;2023-05-10T07:19:37;9.07;;;7.35;;
28335;SDS011;15592;53.656;7.276;2023-05-10T07:22:02;10.25;;;6.90;;
28335;SDS011;15592;53.656;7.276;2023-05-10T07:24:28;10.50;;;7.13;;
28335;SDS011;15592;53.656;7.276;2023-05-10T07:26:54;7.75;;;5.85;;
28335;SDS011;15592;53.656;7.276;2023-05-10T07:29:19;6.63;;;5.32;;
28335;SDS011;15592;53.656;7.276;2023-05-10T07:31:45;6.53;;;4.85;;
28335;SDS011;15592;53.656;7.276;2023-05-10T07:34:11;5.38;;;4.72;;
28335;SDS011;15592;53.656;7.276;2023-05-10T07:36:36;5.25;;;4.03;;
28335;SDS011;15592;53.656;7.276;2023-05-10T07:39:02;5.60;;;4.00;;
28335;SDS011;15592;53.656;7.276;2023-05-10T07:41:27;6.28;;;4.43;;
28335;SDS011;15592;53.656;7.276;2023-05-10T07:43:53;4.80;;;3.78;;
28335;SDS011;15592;53.656;7.276;2023-05-10T07:46:19;5.40;;;4.10;;
28335;SDS011;15592;53.656;7.276;2023-05-10T07:48:44;4.95;;;3.83;;
28335;SDS011;15592;53.656;7.276;2023-05-10T07:51:10;5.13;;;4.10;;
28335;SDS011;15592;53.656;7.276;2023-05-10T07:53:37;5.07;;;4.05;;
28335;SDS011;15592;53.656;7.276;2023-05-10T07:58:57;6.93;;;5.40;;
28335;SDS011;15592;53.656;7.276;2023-05-10T08:01:24;7.85;;;5.50;;
28335;SDS011;15592;53.656;7.276;2023-05-10T08:03:50;7.13;;;5.18;;
28335;SDS011;15592;53.656;7.276;2023-05-10T08:06:19;6.30;;;4.82;;
28335;SDS011;15592;53.656;7.276;2023-05-10T08:08:45;7.68;;;5.70;;
28335;SDS011;15592;53.656;7.276;2023-05-10T08:11:15;7.90;;;6.03;;
28335;SDS011;15592;53.656;7.276;2023-05-10T08:13:41;7.20;;;5.30;;
28335;SDS011;15592;53.656;7.276;2023-05-10T08:16:07;7.82;;;6.13;;
28335;SDS011;15592;53.656;7.276;2023-05-10T08:18:33;12.85;;;8.43;;
28335;SDS011;15592;53.656;7.276;2023-05-10T08:20:58;9.25;;;6.50;;
28335;SDS011;15592;53.656;7.276;2023-05-10T08:23:24;10.90;;;6.78;;
28335;SDS011;15592;53.656;7.276;2023-05-10T08:25:49;15.35;;;9.25;;
28335;SDS011;15592;53.656;7.276;2023-05-10T08:28:15;16.58;;;9.43;;
28335;SDS011;15592;53.656;7.276;2023-05-10T08:30:40;17.40;;;9.43;;
28335;SDS011;15592;53.656;7.276;2023-05-10T08:33:06;14.73;;;8.38;;
28335;SDS011;15592;53.656;7.276;2023-05-10T08:35:32;13.85;;;8.18;;
28335;SDS011;15592;53.656;7.276;2023-05-10T08:37:59;15.13;;;9.43;;
28335;SDS011;15592;53.656;7.276;2023-05-10T08:40:24;17.58;;;9.32;;
28335;SDS011;15592;53.656;7.276;2023-05-10T08:42:55;19.20;;;9.77;;
28335;SDS011;15592;53.656;7.276;2023-05-10T08:45:33;15.57;;;8.25;;
28335;SDS011;15592;53.656;7.276;2023-05-10T08:48:03;11.25;;;6.63;;
28335;SDS011;15592;53.656;7.276;2023-05-10T08:50:31;12.52;;;7.70;;
28335;SDS011;15592;53.656;7.276;2023-05-10T08:52:59;13.40;;;8.23;;
28335;SDS011;15592;53.656;7.276;2023-05-10T08:55:26;12.95;;;8.80;;
28335;SDS011;15592;53.656;7.276;2023-05-10T08:57:52;13.23;;;8.00;;
28335;SDS011;15592;53.656;7.276;2023-05-10T09:00:18;12.52;;;8.38;;
28335;SDS011;15592;53.656;7.276;2023-05-10T09:02:45;13.88;;;8.20;;
28335;SDS011;15592;53.656;7.276;2023-05-10T09:05:11;10.65;;;7.53;;
28335;SDS011;15592;53.656;7.276;2023-05-10T09:07:37;14.05;;;8.40;;
28335;SDS011;15592;53.656;7.276;2023-05-10T09:10:03;14.00;;;7.75;;
28335;SDS011;15592;53.656;7.276;2023-05-10T09:12:29;13.50;;;6.55;;
28335;SDS011;15592;53.656;7.276;2023-05-10T09:14:55;11.10;;;5.38;;
28335;SDS011;15592;53.656;7.276;2023-05-10T09:17:23;11.43;;;5.00;;
28335;SDS011;15592;53.656;7.276;2023-05-10T09:19:49;10.82;;;4.88;;
28335;SDS011;15592;53.656;7.276;2023-05-10T09:22:14;9.38;;;4.18;;
28335;SDS011;15592;53.656;7.276;2023-05-10T09:24:42;12.18;;;5.30;;
28335;SDS011;15592;53.656;7.276;2023-05-10T09:27:10;11.25;;;4.35;;
28335;SDS011;15592;53.656;7.276;2023-05-10T09:29:42;6.25;;;3.50;;
28335;SDS011;15592;53.656;7.276;2023-05-10T09:32:08;10.93;;;4.10;;
28335;SDS011;15592;53.656;7.276;2023-05-10T09:34:33;8.75;;;4.13;;
28335;SDS011;15592;53.656;7.276;2023-05-10T09:37:04;7.07;;;3.58;;
28335;SDS011;15592;53.656;7.276;2023-05-10T09:39:31;7.28;;;3.20;;
28335;SDS011;15592;53.656;7.276;2023-05-10T09:41:58;5.78;;;2.70;;
28335;SDS011;15592;53.656;7.276;2023-05-10T09:44:26;6.22;;;3.33;;
28335;SDS011;15592;53.656;7.276;2023-05-10T09:46:52;5.50;;;3.47;;
28335;SDS011;15592;53.656;7.276;2023-05-10T09:49:18;5.35;;;3.00;;
28335;SDS011;15592;53.656;7.276;2023-05-10T09:51:44;4.47;;;2.75;;
28335;SDS011;15592;53.656;7.276;2023-05-10T09:54:14;4.78;;;2.50;;
28335;SDS011;15592;53.656;7.276;2023-05-10T09:56:41;2.33;;;1.92;;
28335;SDS011;15592;53.656;7.276;2023-05-10T09:59:09;1.65;;;1.55;;
28335;SDS011;15592;53.656;7.276;2023-05-10T10:01:36;1.60;;;1.40;;
28335;SDS011;15592;53.656;7.276;2023-05-10T10:04:05;2.20;;;1.42;;
28335;SDS011;15592;53.656;7.276;2023-05-10T10:06:41;1.30;;;1.20;;
28335;SDS011;15592;53.656;7.276;2023-05-10T10:09:07;1.48;;;1.23;;
28335;SDS011;15592;53.656;7.276;2023-05-10T10:11:34;1.33;;;1.23;;
28335;SDS011;15592;53.656;7.276;2023-05-10T10:14:01;1.45;;;1.13;;
28335;SDS011;15592;53.656;7.276;2023-05-10T10:16:27;1.40;;;1.30;;
28335;SDS011;15592;53.656;7.276;2023-05-10T10:18:54;1.55;;;1.45;;
28335;SDS011;15592;53.656;7.276;2023-05-10T10:21:20;2.13;;;1.50;;
28335;SDS011;15592;53.656;7.276;2023-05-10T10:23:47;2.30;;;2.10;;
28335;SDS011;15592;53.656;7.276;2023-05-10T10:26:13;2.30;;;2.10;;
28335;SDS011;15592;53.656;7.276;2023-05-10T10:28:51;2.83;;;2.50;;
28335;SDS011;15592;53.656;7.276;2023-05-10T10:32:07;3.88;;;2.78;;
28335;SDS011;15592;53.656;7.276;2023-05-10T10:34:49;2.85;;;2.58;;
28335;SDS011;15592;53.656;7.276;2023-05-10T10:37:15;4.45;;;2.80;;
28335;SDS011;15592;53.656;7.276;2023-05-10T10:39:41;4.97;;;3.72;;
28335;SDS011;15592;53.656;7.276;2023-05-10T10:42:06;4.63;;;3.15;;
28335;SDS011;15592;53.656;7.276;2023-05-10T10:47:02;2.80;;;2.50;;
28335;SDS011;15592;53.656;7.276;2023-05-10T10:55:10;4.63;;;4.05;;
28335;SDS011;15592;53.656;7.276;2023-05-10T10:57:47;7.03;;;6.05;;
28335;SDS011;15592;53.656;7.276;2023-05-10T11:05:34;8.13;;;7.20;;
28335;SDS011;15592;53.656;7.276;2023-05-10T11:08:12;8.77;;;7.97;;
28335;SDS011;15592;53.656;7.276;2023-05-10T11:16:20;6.43;;;5.82;;
28335;SDS011;15592;53.656;7.276;2023-05-10T11:18:57;6.53;;;5.93;;
28335;SDS011;15592;53.656;7.276;2023-05-10T11:21:28;7.03;;;6.18;;
28335;SDS011;15592;53.656;7.276;2023-05-10T11:23:55;7.50;;;6.53;;
28335;SDS011;15592;53.656;7.276;2023-05-10T11:26:29;8.65;;;7.75;;
28335;SDS011;15592;53.656;7.276;2023-05-10T11:28:57;8.30;;;7.50;;
28335;SDS011;15592;53.656;7.276;2023-05-10T11:31:25;9.35;;;8.38;;
28335;SDS011;15592;53.656;7.276;2023-05-10T11:33:52;8.45;;;7.57;;
28335;SDS011;15592;53.656;7.276;2023-05-10T11:38:47;7.28;;;6.47;;
28335;SDS011;15592;53.656;7.276;2023-05-10T11:41:14;6.88;;;6.18;;
28335;SDS011;15592;53.656;7.276;2023-05-10T11:43:42;7.05;;;6.18;;
28335;SDS011;15592;53.656;7.276;2023-05-10T11:46:08;6.28;;;5.68;;
28335;SDS011;15592;53.656;7.276;2023-05-10T11:48:38;8.00;;;7.13;;
28335;SDS011;15592;53.656;7.276;2023-05-10T11:51:04;7.82;;;7.03;;
28335;SDS011;15592;53.656;7.276;2023-05-10T11:53:31;9.50;;;7.38;;
28335;SDS011;15592;53.656;7.276;2023-05-10T11:56:07;6.70;;;6.10;;
28335;SDS011;15592;53.656;7.276;2023-05-10T11:58:35;6.32;;;5.72;;
28335;SDS011;15592;53.656;7.276;2023-05-10T12:01:02;6.03;;;5.43;;
28335;SDS011;15592;53.656;7.276;2023-05-10T12:03:29;5.70;;;5.18;;
28335;SDS011;15592;53.656;7.276;2023-05-10T12:05:55;8.48;;;7.57;;
28335;SDS011;15592;53.656;7.276;2023-05-10T12:08:22;10.18;;;8.32;;
28335;SDS011;15592;53.656;7.276;2023-05-10T12:13:19;10.02;;;7.35;;
28335;SDS011;15592;53.656;7.276;2023-05-10T12:15:46;7.75;;;6.88;;
28335;SDS011;15592;53.656;7.276;2023-05-10T12:18:12;6.05;;;5.45;;
28335;SDS011;15592;53.656;7.276;2023-05-10T12:20:39;6.80;;;5.80;;
28335;SDS011;15592;53.656;7.276;2023-05-10T12:23:07;5.72;;;5.07;;
28335;SDS011;15592;53.656;7.276;2023-05-10T12:25:34;5.63;;;5.10;;
28335;SDS011;15592;53.656;7.276;2023-05-10T12:28:06;5.03;;;4.53;;
28335;SDS011;15592;53.656;7.276;2023-05-10T12:30:33;5.45;;;4.28;;
28335;SDS011;15592;53.656;7.276;2023-05-10T12:33:10;6.97;;;5.43;;
28335;SDS011;15592;53.656;7.276;2023-05-10T12:35:46;5.22;;;4.65;;
28335;SDS011;15592;53.656;7.276;2023-05-10T12:38:32;5.97;;;4.68;;
28335;SDS011;15592;53.656;7.276;2023-05-10T12:41:02;4.57;;;3.97;;
28335;SDS011;15592;53.656;7.276;2023-05-10T12:43:29;6.55;;;4.70;;
28335;SDS011;15592;53.656;7.276;2023-05-10T12:45:55;5.28;;;4.13;;
28335;SDS011;15592;53.656;7.276;2023-05-10T12:48:21;6.43;;;5.00;;
28335;SDS011;15592;53.656;7.276;2023-05-10T12:50:47;7.50;;;5.47;;
28335;SDS011;15592;53.656;7.276;2023-05-10T12:53:14;6.65;;;5.40;;
28335;SDS011;15592;53.656;7.276;2023-05-10T12:55:43;6.93;;;5.35;;
28335;SDS011;15592;53.656;7.276;2023-05-10T12:58:09;6.07;;;4.95;;
28335;SDS011;15592;53.656;7.276;2023-05-10T13:00:35;7.70;;;6.10;;
28335;SDS011;15592;53.656;7.276;2023-05-10T13:03:03;5.78;;;5.10;;
28335;SDS011;15592;53.656;7.276;2023-05-10T13:05:30;7.85;;;5.13;;
28335;SDS011;15592;53.656;7.276;2023-05-10T13:07:57;8.68;;;5.85;;
28335;SDS011;15592;53.656;7.276;2023-05-10T13:10:22;7.57;;;6.15;;
28335;SDS011;15592;53.656;7.276;2023-05-10T13:12:48;7.35;;;6.38;;
28335;SDS011;15592;53.656;7.276;2023-05-10T13:15:14;6.90;;;5.78;;
28335;SDS011;15592;53.656;7.276;2023-05-10T13:17:40;8.68;;;6.07;;
28335;SDS011;15592;53.656;7.276;2023-05-10T13:20:07;7.75;;;5.47;;
28335;SDS011;15592;53.656;7.276;2023-05-10T13:22:34;10.02;;;6.18;;
28335;SDS011;15592;53.656;7.276;2023-05-10T13:25:00;7.38;;;6.25;;
28335;SDS011;15592;53.656;7.276;2023-05-10T13:27:26;7.88;;;6.53;;
28335;SDS011;15592;53.656;7.276;2023-05-10T13:29:51;9.43;;;7.65;;
28335;SDS011;15592;53.656;7.276;2023-05-10T13:32:17;10.85;;;8.10;;
28335;SDS011;15592;53.656;7.276;2023-05-10T13:34:43;13.65;;;8.88;;
28335;SDS011;15592;53.656;7.276;2023-05-10T13:37:08;12.15;;;9.80;;
28335;SDS011;15592;53.656;7.276;2023-05-10T13:39:34;14.00;;;10.43;;
28335;SDS011;15592;53.656;7.276;2023-05-10T13:42:02;14.25;;;10.52;;
28335;SDS011;15592;53.656;7.276;2023-05-10T13:44:28;16.50;;;11.52;;
28335;SDS011;15592;53.656;7.276;2023-05-10T13:46:54;19.92;;;12.32;;
28335;SDS011;15592;53.656;7.276;2023-05-10T13:49:20;19.48;;;12.68;;
28335;SDS011;15592;53.656;7.276;2023-05-10T13:51:47;19.77;;;12.75;;
28335;SDS011;15592;53.656;7.276;2023-05-10T13:54:12;16.58;;;11.95;;
28335;SDS011;15592;53.656;7.276;2023-05-10T13:56:38;15.70;;;11.20;;
28335;SDS011;15592;53.656;7.276;2023-05-10T13:59:05;17.60;;;12.25;;
28335;SDS011;15592;53.656;7.276;2023-05-10T14:01:32;16.17;;;11.73;;
28335;SDS011;15592;53.656;7.276;2023-05-10T14:03:58;16.88;;;11.38;;
28335;SDS011;15592;53.656;7.276;2023-05-10T14:06:24;14.35;;;11.43;;
28335;SDS011;15592;53.656;7.276;2023-05-10T14:08:50;19.23;;;12.43;;
28335;SDS011;15592;53.656;7.276;2023-05-10T14:11:15;14.07;;;11.02;;
28335;SDS011;15592;53.656;7.276;2023-05-10T14:13:41;13.70;;;10.77;;
28335;SDS011;15592;53.656;7.276;2023-05-10T14:16:06;14.05;;;10.57;;
28335;SDS011;15592;53.656;7.276;2023-05-10T14:18:32;14.02;;;11.38;;
28335;SDS011;15592;53.656;7.276;2023-05-10T14:20:58;13.00;;;10.38;;
28335;SDS011;15592;53.656;7.276;2023-05-10T14:23:23;10.55;;;8.73;;
28335;SDS011;15592;53.656;7.276;2023-05-10T14:25:52;11.05;;;9.05;;
28335;SDS011;15592;53.656;7.276;2023-05-10T14:28:17;10.35;;;9.25;;
28335;SDS011;15592;53.656;7.276;2023-05-10T14:30:45;11.23;;;9.45;;
28335;SDS011;15592;53.656;7.276;2023-05-10T14:33:11;11.25;;;9.65;;
28335;SDS011;15592;53.656;7.276;2023-05-10T14:35:37;12.50;;;9.50;;
28335;SDS011;15592;53.656;7.276;2023-05-10T14:38:02;12.32;;;9.68;;
28335;SDS011;15592;53.656;7.276;2023-05-10T14:40:28;18.38;;;10.90;;
28335;SDS011;15592;53.656;7.276;2023-05-10T14:42:54;12.70;;;10.23;;
28335;SDS011;15592;53.656;7.276;2023-05-10T14:45:21;11.48;;;8.00;;
28335;SDS011;15592;53.656;7.276;2023-05-10T14:47:47;10.93;;;8.40;;
28335;SDS011;15592;53.656;7.276;2023-05-10T14:50:13;11.23;;;9.00;;
28335;SDS011;15592;53.656;7.276;2023-05-10T14:52:39;11.38;;;9.48;;
28335;SDS011;15592;53.656;7.276;2023-05-10T14:55:05;13.32;;;10.52;;
28335;SDS011;15592;53.656;7.276;2023-05-10T14:57:31;13.27;;;10.82;;
28335;SDS011;15592;53.656;7.276;2023-05-10T14:59:57;14.68;;;11.55;;
28335;SDS011;15592;53.656;7.276;2023-05-10T15:02:22;15.65;;;11.65;;
28335;SDS011;15592;53.656;7.276;2023-05-10T15:04:48;15.60;;;12.00;;
28335;SDS011;15592;53.656;7.276;2023-05-10T15:07:14;16.38;;;12.57;;
28335;SDS011;15592;53.656;7.276;2023-05-10T15:09:42;13.50;;;11.00;;
28335;SDS011;15592;53.656;7.276;2023-05-10T15:12:08;14.20;;;11.25;;
28335;SDS011;15592;53.656;7.276;2023-05-10T15:14:33;17.60;;;12.80;;
28335;SDS011;15592;53.656;7.276;2023-05-10T15:17:01;17.65;;;13.20;;
28335;SDS011;15592;53.656;7.276;2023-05-10T15:19:27;16.42;;;12.30;;